sensor_id;sensor_type;location;lat;lon;timestamp;pressure;altitude;pressure_sealevel;temperature;humidity
48530;BME280;34927;37.302;-121.982;2023-03-03T00:00:42;101146.0;;;24.28;24.34
48530;BME280;34927;37.302;-121.982;2023-03-03T00:01:46;101142.0;;;24.18;24.42
48530;BME280;34927;37.302;-121.982;2023-03-03T00:02:51;101141.0;;;24.27;24.41
48530;BME280;34927;37.302;-121.982;2023-03-03T00:03:57;101140.0;;;24.30;24.32
48530;BME280;34927;37.302;-121.982;2023-03-03T00:05:01;101142.0;;;24.24;24.27
48530;BME280;34927;37.302;-121.982;2023-03-03T00:06:09;101145.0;;;24.28;24.23
48530;BME280;34927;37.302;-121.982;2023-03-03T00:07:12;101146.0;;;24.34;24.26
48530;BME280;34927;37.302;-121.982;2023-03-03T00:08:18;101144.0;;;24.28;24.33
48530;BME280;34927;37.302;-121.982;2023-03-03T00:09:22;101142.0;;;24.31;24.43
48530;BME280;34927;37.302;-121.982;2023-03-03T00:10:27;101141.0;;;24.30;24.44
48530;BME280;34927;37.302;-121.982;2023-03-03T00:11:31;101143.0;;;24.27;24.42
48530;BME280;34927;37.302;-121.982;2023-03-03T00:12:45;101141.0;;;24.34;24.29
48530;BME280;34927;37.302;-121.982;2023-03-03T00:13:53;101143.0;;;24.33;24.33
48530;BME280;34927;37.302;-121.982;2023-03-03T00:14:57;101141.0;;;24.36;24.27
48530;BME280;34927;37.302;-121.982;2023-03-03T00:16:14;101140.0;;;24.45;24.24
48530;BME280;34927;37.302;-121.982;2023-03-03T00:17:20;101142.0;;;24.43;24.25
48530;BME280;34927;37.302;-121.982;2023-03-03T00:18:31;101142.0;;;24.45;24.26
48530;BME280;34927;37.302;-121.982;2023-03-03T00:19:38;101138.0;;;24.44;24.23
48530;BME280;34927;37.302;-121.982;2023-03-03T00:20:48;101141.0;;;24.41;24.28
48530;BME280;34927;37.302;-121.982;2023-03-03T00:21:52;101144.0;;;24.23;24.46
48530;BME280;34927;37.302;-121.982;2023-03-03T00:23:18;101146.0;;;24.25;24.49
48530;BME280;34927;37.302;-121.982;2023-03-03T00:24:23;101147.0;;;24.38;24.47
48530;BME280;34927;37.302;-121.982;2023-03-03T00:25:29;101148.0;;;24.38;24.46
48530;BME280;34927;37.302;-121.982;2023-03-03T00:26:39;101149.0;;;24.36;24.51
48530;BME280;34927;37.302;-121.982;2023-03-03T00:27:43;101147.0;;;24.43;24.45
48530;BME280;34927;37.302;-121.982;2023-03-03T00:28:49;101150.0;;;24.44;24.43
48530;BME280;34927;37.302;-121.982;2023-03-03T00:29:53;101153.0;;;24.44;24.69
48530;BME280;34927;37.302;-121.982;2023-03-03T00:30:58;101153.0;;;24.28;24.93
48530;BME280;34927;37.302;-121.982;2023-03-03T00:32:16;101154.0;;;24.42;24.94
48530;BME280;34927;37.302;-121.982;2023-03-03T00:33:26;101152.0;;;24.41;25.01
48530;BME280;34927;37.302;-121.982;2023-03-03T00:34:34;101154.0;;;24.44;25.15
48530;BME280;34927;37.302;-121.982;2023-03-03T00:35:37;101157.0;;;24.56;25.04
48530;BME280;34927;37.302;-121.982;2023-03-03T00:36:42;101157.0;;;24.63;25.06
48530;BME280;34927;37.302;-121.982;2023-03-03T00:37:54;101154.0;;;24.66;25.11
48530;BME280;34927;37.302;-121.982;2023-03-03T00:39:10;101151.0;;;24.68;25.35
48530;BME280;34927;37.302;-121.982;2023-03-03T00:40:24;101150.0;;;24.69;25.42
48530;BME280;34927;37.302;-121.982;2023-03-03T00:41:27;101155.0;;;24.64;25.46
48530;BME280;34927;37.302;-121.982;2023-03-03T00:42:33;101156.0;;;24.76;25.46
48530;BME280;34927;37.302;-121.982;2023-03-03T00:43:36;101159.0;;;24.79;25.45
48530;BME280;34927;37.302;-121.982;2023-03-03T00:44:43;101164.0;;;24.82;25.52
48530;BME280;34927;37.302;-121.982;2023-03-03T00:45:47;101163.0;;;24.70;25.83
48530;BME280;34927;37.302;-121.982;2023-03-03T00:46:51;101161.0;;;24.81;25.90
48530;BME280;34927;37.302;-121.982;2023-03-03T00:47:58;101156.0;;;24.69;25.99
48530;BME280;34927;37.302;-121.982;2023-03-03T00:51:28;101150.0;;;24.77;26.20
48530;BME280;34927;37.302;-121.982;2023-03-03T00:52:33;101152.0;;;24.76;26.15
48530;BME280;34927;37.302;-121.982;2023-03-03T00:53:36;101156.0;;;24.86;26.36
48530;BME280;34927;37.302;-121.982;2023-03-03T00:54:42;101154.0;;;24.87;26.43
48530;BME280;34927;37.302;-121.982;2023-03-03T00:55:49;101156.0;;;24.77;26.36
48530;BME280;34927;37.302;-121.982;2023-03-03T00:56:51;101161.0;;;24.68;26.55
48530;BME280;34927;37.302;-121.982;2023-03-03T00:57:57;101161.0;;;24.77;26.54
48530;BME280;34927;37.302;-121.982;2023-03-03T00:59:01;101162.0;;;24.80;26.66
48530;BME280;34927;37.302;-121.982;2023-03-03T01:00:08;101162.0;;;24.82;26.73
48530;BME280;34927;37.302;-121.982;2023-03-03T01:01:11;101161.0;;;24.77;26.84
48530;BME280;34927;37.302;-121.982;2023-03-03T01:02:16;101160.0;;;24.75;26.78
48530;BME280;34927;37.302;-121.982;2023-03-03T01:03:24;101158.0;;;24.78;26.96
48530;BME280;34927;37.302;-121.982;2023-03-03T01:04:26;101159.0;;;24.72;26.94
48530;BME280;34927;37.302;-121.982;2023-03-03T01:05:32;101163.0;;;24.62;27.34
48530;BME280;34927;37.302;-121.982;2023-03-03T01:06:36;101163.0;;;24.57;27.40
48530;BME280;34927;37.302;-121.982;2023-03-03T01:07:42;101164.0;;;24.63;27.27
48530;BME280;34927;37.302;-121.982;2023-03-03T01:08:47;101167.0;;;24.74;27.16
48530;BME280;34927;37.302;-121.982;2023-03-03T01:09:52;101167.0;;;24.62;27.51
48530;BME280;34927;37.302;-121.982;2023-03-03T01:10:59;101165.0;;;24.59;27.47
48530;BME280;34927;37.302;-121.982;2023-03-03T01:12:06;101163.0;;;24.50;27.67
48530;BME280;34927;37.302;-121.982;2023-03-03T01:13:12;101163.0;;;24.60;27.80
48530;BME280;34927;37.302;-121.982;2023-03-03T01:14:16;101163.0;;;24.57;27.64
48530;BME280;34927;37.302;-121.982;2023-03-03T01:15:22;101164.0;;;24.55;28.02
48530;BME280;34927;37.302;-121.982;2023-03-03T01:16:27;101162.0;;;24.59;28.13
48530;BME280;34927;37.302;-121.982;2023-03-03T01:17:32;101162.0;;;24.57;27.93
48530;BME280;34927;37.302;-121.982;2023-03-03T01:18:37;101162.0;;;24.69;27.75
48530;BME280;34927;37.302;-121.982;2023-03-03T01:19:42;101165.0;;;24.64;27.82
48530;BME280;34927;37.302;-121.982;2023-03-03T01:20:47;101167.0;;;24.45;28.00
48530;BME280;34927;37.302;-121.982;2023-03-03T01:21:52;101169.0;;;24.58;28.09
48530;BME280;34927;37.302;-121.982;2023-03-03T01:22:57;101169.0;;;24.67;27.91
48530;BME280;34927;37.302;-121.982;2023-03-03T01:24:02;101170.0;;;24.60;27.70
48530;BME280;34927;37.302;-121.982;2023-03-03T01:25:08;101170.0;;;24.43;26.52
48530;BME280;34927;37.302;-121.982;2023-03-03T01:26:12;101168.0;;;24.15;26.00
48530;BME280;34927;37.302;-121.982;2023-03-03T01:27:17;101169.0;;;23.89;26.00
48530;BME280;34927;37.302;-121.982;2023-03-03T01:28:21;101169.0;;;23.81;25.99
48530;BME280;34927;37.302;-121.982;2023-03-03T01:29:26;101170.0;;;23.75;26.20
48530;BME280;34927;37.302;-121.982;2023-03-03T01:30:32;101174.0;;;23.57;26.42
48530;BME280;34927;37.302;-121.982;2023-03-03T01:31:37;101173.0;;;23.66;26.28
48530;BME280;34927;37.302;-121.982;2023-03-03T01:32:42;101179.0;;;23.62;26.24
48530;BME280;34927;37.302;-121.982;2023-03-03T01:33:46;101178.0;;;23.56;26.29
48530;BME280;34927;37.302;-121.982;2023-03-03T01:34:53;101180.0;;;23.56;26.24
48530;BME280;34927;37.302;-121.982;2023-03-03T01:35:56;101182.0;;;23.59;26.28
48530;BME280;34927;37.302;-121.982;2023-03-03T01:37:02;101184.0;;;23.57;26.51
48530;BME280;34927;37.302;-121.982;2023-03-03T01:38:06;101189.0;;;23.66;26.36
48530;BME280;34927;37.302;-121.982;2023-03-03T01:39:11;101190.0;;;23.66;26.37
48530;BME280;34927;37.302;-121.982;2023-03-03T01:40:19;101191.0;;;23.66;26.37
48530;BME280;34927;37.302;-121.982;2023-03-03T01:41:22;101192.0;;;23.67;26.39
48530;BME280;34927;37.302;-121.982;2023-03-03T01:42:32;101189.0;;;23.63;26.40
48530;BME280;34927;37.302;-121.982;2023-03-03T01:43:43;101188.0;;;23.72;26.32
48530;BME280;34927;37.302;-121.982;2023-03-03T01:44:47;101183.0;;;23.79;26.29
48530;BME280;34927;37.302;-121.982;2023-03-03T01:47:08;101188.0;;;23.61;26.55
48530;BME280;34927;37.302;-121.982;2023-03-03T01:48:16;101194.0;;;23.59;26.57
48530;BME280;34927;37.302;-121.982;2023-03-03T01:49:24;101197.0;;;23.64;26.58
48530;BME280;34927;37.302;-121.982;2023-03-03T01:50:37;101202.0;;;23.61;26.53
48530;BME280;34927;37.302;-121.982;2023-03-03T01:51:47;101204.0;;;23.56;26.62
48530;BME280;34927;37.302;-121.982;2023-03-03T01:52:51;101207.0;;;23.52;26.60
48530;BME280;34927;37.302;-121.982;2023-03-03T01:54:00;101209.0;;;23.58;26.81
48530;BME280;34927;37.302;-121.982;2023-03-03T01:55:11;101213.0;;;23.56;26.52
48530;BME280;34927;37.302;-121.982;2023-03-03T01:56:16;101216.0;;;23.44;26.54
48530;BME280;34927;37.302;-121.982;2023-03-03T01:57:24;101219.0;;;23.47;26.45
48530;BME280;34927;37.302;-121.982;2023-03-03T01:58:35;101219.0;;;23.56;26.35
48530;BME280;34927;37.302;-121.982;2023-03-03T01:59:45;101224.0;;;23.36;26.56
48530;BME280;34927;37.302;-121.982;2023-03-03T02:00:56;101225.0;;;23.33;27.10
48530;BME280;34927;37.302;-121.982;2023-03-03T02:02:02;101225.0;;;23.43;26.56
48530;BME280;34927;37.302;-121.982;2023-03-03T02:03:07;101223.0;;;23.60;26.50
48530;BME280;34927;37.302;-121.982;2023-03-03T02:04:12;101221.0;;;23.83;26.27
48530;BME280;34927;37.302;-121.982;2023-03-03T02:05:18;101221.0;;;24.08;26.03
48530;BME280;34927;37.302;-121.982;2023-03-03T02:06:24;101219.0;;;24.40;25.73
48530;BME280;34927;37.302;-121.982;2023-03-03T02:07:31;101222.0;;;24.67;25.43
48530;BME280;34927;37.302;-121.982;2023-03-03T02:08:41;101224.0;;;24.97;25.11
48530;BME280;34927;37.302;-121.982;2023-03-03T02:09:54;101222.0;;;25.22;24.84
48530;BME280;34927;37.302;-121.982;2023-03-03T02:11:03;101222.0;;;25.43;24.62
48530;BME280;34927;37.302;-121.982;2023-03-03T02:12:09;101226.0;;;25.32;24.72
48530;BME280;34927;37.302;-121.982;2023-03-03T02:13:16;101232.0;;;25.23;24.86
48530;BME280;34927;37.302;-121.982;2023-03-03T02:14:24;101240.0;;;25.08;25.19
48530;BME280;34927;37.302;-121.982;2023-03-03T02:15:28;101246.0;;;24.83;25.38
48530;BME280;34927;37.302;-121.982;2023-03-03T02:16:32;101249.0;;;24.65;25.64
48530;BME280;34927;37.302;-121.982;2023-03-03T02:17:37;101249.0;;;24.53;25.80
48530;BME280;34927;37.302;-121.982;2023-03-03T02:18:41;101249.0;;;24.44;26.00
48530;BME280;34927;37.302;-121.982;2023-03-03T02:19:53;101250.0;;;24.22;26.05
48530;BME280;34927;37.302;-121.982;2023-03-03T02:21:06;101251.0;;;24.25;26.16
48530;BME280;34927;37.302;-121.982;2023-03-03T02:22:13;101252.0;;;24.19;26.14
48530;BME280;34927;37.302;-121.982;2023-03-03T02:23:26;101251.0;;;24.24;25.87
48530;BME280;34927;37.302;-121.982;2023-03-03T02:24:36;101256.0;;;24.42;25.91
48530;BME280;34927;37.302;-121.982;2023-03-03T02:25:47;101258.0;;;24.59;25.79
48530;BME280;34927;37.302;-121.982;2023-03-03T02:26:57;101261.0;;;24.83;25.54
48530;BME280;34927;37.302;-121.982;2023-03-03T02:28:02;101264.0;;;25.04;25.27
48530;BME280;34927;37.302;-121.982;2023-03-03T02:29:07;101265.0;;;25.26;25.02
48530;BME280;34927;37.302;-121.982;2023-03-03T02:30:17;101266.0;;;25.48;24.77
48530;BME280;34927;37.302;-121.982;2023-03-03T02:31:23;101270.0;;;25.61;24.57
48530;BME280;34927;37.302;-121.982;2023-03-03T02:32:27;101277.0;;;25.51;24.68
48530;BME280;34927;37.302;-121.982;2023-03-03T02:33:32;101282.0;;;25.44;24.74
48530;BME280;34927;37.302;-121.982;2023-03-03T02:34:46;101289.0;;;25.36;24.89
48530;BME280;34927;37.302;-121.982;2023-03-03T02:35:52;101295.0;;;25.02;25.22
48530;BME280;34927;37.302;-121.982;2023-03-03T02:36:57;101301.0;;;24.87;25.35
48530;BME280;34927;37.302;-121.982;2023-03-03T02:38:10;101304.0;;;24.62;25.60
48530;BME280;34927;37.302;-121.982;2023-03-03T02:39:19;101308.0;;;24.58;25.71
48530;BME280;34927;37.302;-121.982;2023-03-03T02:40:24;101308.0;;;24.37;25.88
48530;BME280;34927;37.302;-121.982;2023-03-03T02:41:35;101309.0;;;24.30;26.03
48530;BME280;34927;37.302;-121.982;2023-03-03T02:42:43;101311.0;;;24.21;26.17
48530;BME280;34927;37.302;-121.982;2023-03-03T02:43:53;101317.0;;;24.08;26.44
48530;BME280;34927;37.302;-121.982;2023-03-03T02:44:56;101321.0;;;24.07;26.42
48530;BME280;34927;37.302;-121.982;2023-03-03T02:46:02;101321.0;;;24.05;26.22
48530;BME280;34927;37.302;-121.982;2023-03-03T02:47:07;101323.0;;;23.88;26.69
48530;BME280;34927;37.302;-121.982;2023-03-03T02:48:12;101324.0;;;23.95;26.49
48530;BME280;34927;37.302;-121.982;2023-03-03T02:49:19;101325.0;;;24.04;26.42
48530;BME280;34927;37.302;-121.982;2023-03-03T02:50:22;101326.0;;;24.31;26.29
48530;BME280;34927;37.302;-121.982;2023-03-03T02:51:26;101327.0;;;24.58;26.14
48530;BME280;34927;37.302;-121.982;2023-03-03T02:52:31;101324.0;;;24.84;25.91
48530;BME280;34927;37.302;-121.982;2023-03-03T02:53:37;101325.0;;;25.04;25.84
48530;BME280;34927;37.302;-121.982;2023-03-03T02:54:42;101325.0;;;25.14;25.74
48530;BME280;34927;37.302;-121.982;2023-03-03T02:55:47;101330.0;;;25.02;25.81
48530;BME280;34927;37.302;-121.982;2023-03-03T02:56:52;101330.0;;;25.01;25.93
48530;BME280;34927;37.302;-121.982;2023-03-03T02:57:57;101333.0;;;24.74;26.24
48530;BME280;34927;37.302;-121.982;2023-03-03T02:59:03;101336.0;;;24.74;26.04
48530;BME280;34927;37.302;-121.982;2023-03-03T03:00:07;101336.0;;;24.61;26.12
48530;BME280;34927;37.302;-121.982;2023-03-03T03:01:12;101339.0;;;24.32;26.37
48530;BME280;34927;37.302;-121.982;2023-03-03T03:02:16;101341.0;;;24.23;26.45
48530;BME280;34927;37.302;-121.982;2023-03-03T03:03:21;101341.0;;;24.11;26.84
48530;BME280;34927;37.302;-121.982;2023-03-03T03:04:27;101345.0;;;24.10;26.97
48530;BME280;34927;37.302;-121.982;2023-03-03T03:05:32;101344.0;;;23.98;26.89
48530;BME280;34927;37.302;-121.982;2023-03-03T03:06:37;101349.0;;;24.03;27.03
48530;BME280;34927;37.302;-121.982;2023-03-03T03:07:42;101350.0;;;24.01;26.98
48530;BME280;34927;37.302;-121.982;2023-03-03T03:08:47;101351.0;;;23.99;27.07
48530;BME280;34927;37.302;-121.982;2023-03-03T03:09:51;101353.0;;;23.95;27.17
48530;BME280;34927;37.302;-121.982;2023-03-03T03:10:56;101354.0;;;23.89;26.96
48530;BME280;34927;37.302;-121.982;2023-03-03T03:12:01;101353.0;;;23.88;26.95
48530;BME280;34927;37.302;-121.982;2023-03-03T03:13:07;101352.0;;;23.91;26.86
48530;BME280;34927;37.302;-121.982;2023-03-03T03:14:13;101356.0;;;23.80;27.09
48530;BME280;34927;37.302;-121.982;2023-03-03T03:15:16;101356.0;;;23.82;27.01
48530;BME280;34927;37.302;-121.982;2023-03-03T03:16:22;101360.0;;;23.71;27.19
48530;BME280;34927;37.302;-121.982;2023-03-03T03:17:27;101361.0;;;23.62;27.26
48530;BME280;34927;37.302;-121.982;2023-03-03T03:18:32;101363.0;;;23.56;27.36
48530;BME280;34927;37.302;-121.982;2023-03-03T03:19:36;101366.0;;;23.60;27.50
48530;BME280;34927;37.302;-121.982;2023-03-03T03:20:41;101370.0;;;23.84;27.43
48530;BME280;34927;37.302;-121.982;2023-03-03T03:21:46;101374.0;;;24.06;27.26
48530;BME280;34927;37.302;-121.982;2023-03-03T03:22:52;101377.0;;;24.40;26.96
48530;BME280;34927;37.302;-121.982;2023-03-03T03:23:57;101374.0;;;24.62;26.69
48530;BME280;34927;37.302;-121.982;2023-03-03T03:25:02;101373.0;;;24.83;26.42
48530;BME280;34927;37.302;-121.982;2023-03-03T03:26:07;101370.0;;;24.80;26.40
48530;BME280;34927;37.302;-121.982;2023-03-03T03:27:12;101369.0;;;24.70;26.46
48530;BME280;34927;37.302;-121.982;2023-03-03T03:28:17;101371.0;;;24.58;26.61
48530;BME280;34927;37.302;-121.982;2023-03-03T03:29:21;101370.0;;;24.53;26.66
48530;BME280;34927;37.302;-121.982;2023-03-03T03:30:27;101366.0;;;24.46;26.64
48530;BME280;34927;37.302;-121.982;2023-03-03T03:31:32;101361.0;;;24.42;26.61
48530;BME280;34927;37.302;-121.982;2023-03-03T03:32:37;101356.0;;;24.15;26.95
48530;BME280;34927;37.302;-121.982;2023-03-03T03:33:42;101353.0;;;24.01;27.04
48530;BME280;34927;37.302;-121.982;2023-03-03T03:34:46;101354.0;;;23.78;27.34
48530;BME280;34927;37.302;-121.982;2023-03-03T03:35:51;101349.0;;;23.72;27.56
48530;BME280;34927;37.302;-121.982;2023-03-03T03:36:57;101345.0;;;23.52;27.83
48530;BME280;34927;37.302;-121.982;2023-03-03T03:38:02;101342.0;;;23.53;27.59
48530;BME280;34927;37.302;-121.982;2023-03-03T03:39:06;101337.0;;;23.48;27.90
48530;BME280;34927;37.302;-121.982;2023-03-03T03:40:12;101332.0;;;23.35;28.05
48530;BME280;34927;37.302;-121.982;2023-03-03T03:41:16;101328.0;;;23.35;28.00
48530;BME280;34927;37.302;-121.982;2023-03-03T03:42:22;101325.0;;;23.32;28.06
48530;BME280;34927;37.302;-121.982;2023-03-03T03:43:27;101322.0;;;23.24;28.19
48530;BME280;34927;37.302;-121.982;2023-03-03T03:44:32;101323.0;;;23.17;28.31
48530;BME280;34927;37.302;-121.982;2023-03-03T03:45:37;101320.0;;;23.22;28.22
48530;BME280;34927;37.302;-121.982;2023-03-03T03:46:42;101316.0;;;23.08;28.40
48530;BME280;34927;37.302;-121.982;2023-03-03T03:47:48;101312.0;;;23.10;28.40
48530;BME280;34927;37.302;-121.982;2023-03-03T03:48:51;101312.0;;;23.00;28.33
48530;BME280;34927;37.302;-121.982;2023-03-03T03:49:56;101311.0;;;23.00;28.40
48530;BME280;34927;37.302;-121.982;2023-03-03T03:51:02;101315.0;;;23.27;28.04
48530;BME280;34927;37.302;-121.982;2023-03-03T03:52:07;101321.0;;;23.46;27.91
48530;BME280;34927;37.302;-121.982;2023-03-03T03:53:12;101322.0;;;23.77;27.64
48530;BME280;34927;37.302;-121.982;2023-03-03T03:54:16;101326.0;;;23.99;27.34
48530;BME280;34927;37.302;-121.982;2023-03-03T03:55:22;101327.0;;;24.31;26.99
48530;BME280;34927;37.302;-121.982;2023-03-03T03:56:26;101328.0;;;24.54;26.65
48530;BME280;34927;37.302;-121.982;2023-03-03T03:57:31;101326.0;;;24.50;26.67
48530;BME280;34927;37.302;-121.982;2023-03-03T03:58:36;101327.0;;;24.40;26.73
48530;BME280;34927;37.302;-121.982;2023-03-03T03:59:42;101325.0;;;24.24;26.93
48530;BME280;34927;37.302;-121.982;2023-03-03T04:00:48;101324.0;;;24.08;27.15
48530;BME280;34927;37.302;-121.982;2023-03-03T04:01:51;101323.0;;;23.94;27.32
48530;BME280;34927;37.302;-121.982;2023-03-03T04:02:57;101326.0;;;23.84;27.47
48530;BME280;34927;37.302;-121.982;2023-03-03T04:04:02;101326.0;;;23.78;27.35
48530;BME280;34927;37.302;-121.982;2023-03-03T04:05:07;101328.0;;;23.68;27.40
48530;BME280;34927;37.302;-121.982;2023-03-03T04:06:11;101329.0;;;23.57;27.63
48530;BME280;34927;37.302;-121.982;2023-03-03T04:07:16;101330.0;;;23.49;27.56
48530;BME280;34927;37.302;-121.982;2023-03-03T04:08:22;101332.0;;;23.40;27.70
48530;BME280;34927;37.302;-121.982;2023-03-03T04:09:26;101333.0;;;23.32;27.86
48530;BME280;34927;37.302;-121.982;2023-03-03T04:10:32;101333.0;;;23.23;28.11
48530;BME280;34927;37.302;-121.982;2023-03-03T04:11:37;101334.0;;;23.27;28.02
48530;BME280;34927;37.302;-121.982;2023-03-03T04:12:41;101330.0;;;23.22;27.99
48530;BME280;34927;37.302;-121.982;2023-03-03T04:13:53;101325.0;;;23.22;27.96
48530;BME280;34927;37.302;-121.982;2023-03-03T04:14:56;101322.0;;;23.12;28.17
48530;BME280;34927;37.302;-121.982;2023-03-03T04:16:02;101320.0;;;23.04;28.24
48530;BME280;34927;37.302;-121.982;2023-03-03T04:17:06;101317.0;;;23.01;28.20
48530;BME280;34927;37.302;-121.982;2023-03-03T04:18:12;101321.0;;;23.03;28.28
48530;BME280;34927;37.302;-121.982;2023-03-03T04:19:17;101321.0;;;22.86;28.51
48530;BME280;34927;37.302;-121.982;2023-03-03T04:20:21;101319.0;;;23.00;28.19
48530;BME280;34927;37.302;-121.982;2023-03-03T04:21:26;101319.0;;;22.89;28.50
48530;BME280;34927;37.302;-121.982;2023-03-03T04:22:32;101314.0;;;22.98;28.22
48530;BME280;34927;37.302;-121.982;2023-03-03T04:23:36;101315.0;;;23.10;28.40
48530;BME280;34927;37.302;-121.982;2023-03-03T04:24:42;101316.0;;;23.35;28.19
48530;BME280;34927;37.302;-121.982;2023-03-03T04:25:48;101316.0;;;23.65;27.95
48530;BME280;34927;37.302;-121.982;2023-03-03T04:26:52;101317.0;;;23.97;27.66
48530;BME280;34927;37.302;-121.982;2023-03-03T04:27:57;101318.0;;;24.20;27.39
48530;BME280;34927;37.302;-121.982;2023-03-03T04:29:02;101316.0;;;24.30;27.34
48530;BME280;34927;37.302;-121.982;2023-03-03T04:30:08;101318.0;;;24.17;27.44
48530;BME280;34927;37.302;-121.982;2023-03-03T04:31:11;101316.0;;;24.10;27.51
48530;BME280;34927;37.302;-121.982;2023-03-03T04:32:16;101315.0;;;23.82;27.85
48530;BME280;34927;37.302;-121.982;2023-03-03T04:33:21;101313.0;;;23.67;28.10
48530;BME280;34927;37.302;-121.982;2023-03-03T04:34:26;101313.0;;;23.53;28.21
48530;BME280;34927;37.302;-121.982;2023-03-03T04:35:31;101313.0;;;23.42;28.09
48530;BME280;34927;37.302;-121.982;2023-03-03T04:36:38;101318.0;;;23.33;28.22
48530;BME280;34927;37.302;-121.982;2023-03-03T04:37:41;101321.0;;;23.20;28.38
48530;BME280;34927;37.302;-121.982;2023-03-03T04:38:47;101325.0;;;23.13;28.44
48530;BME280;34927;37.302;-121.982;2023-03-03T04:39:51;101330.0;;;23.08;28.53
48530;BME280;34927;37.302;-121.982;2023-03-03T04:40:57;101334.0;;;23.08;28.61
48530;BME280;34927;37.302;-121.982;2023-03-03T04:42:02;101339.0;;;22.96;28.70
48530;BME280;34927;37.302;-121.982;2023-03-03T04:43:07;101344.0;;;22.98;28.72
48530;BME280;34927;37.302;-121.982;2023-03-03T04:44:12;101343.0;;;22.89;28.79
48530;BME280;34927;37.302;-121.982;2023-03-03T04:45:17;101349.0;;;22.84;28.96
48530;BME280;34927;37.302;-121.982;2023-03-03T04:46:22;101350.0;;;22.82;29.03
48530;BME280;34927;37.302;-121.982;2023-03-03T04:47:26;101352.0;;;22.87;28.90
48530;BME280;34927;37.302;-121.982;2023-03-03T04:48:32;101350.0;;;22.96;28.98
48530;BME280;34927;37.302;-121.982;2023-03-03T04:49:36;101351.0;;;23.13;29.06
48530;BME280;34927;37.302;-121.982;2023-03-03T04:50:42;101352.0;;;23.38;28.87
48530;BME280;34927;37.302;-121.982;2023-03-03T04:51:46;101356.0;;;23.65;28.59
48530;BME280;34927;37.302;-121.982;2023-03-03T04:52:51;101353.0;;;23.98;28.22
48530;BME280;34927;37.302;-121.982;2023-03-03T04:53:56;101356.0;;;24.17;27.90
48530;BME280;34927;37.302;-121.982;2023-03-03T04:55:02;101356.0;;;24.35;27.65
48530;BME280;34927;37.302;-121.982;2023-03-03T04:56:07;101358.0;;;24.21;27.72
48530;BME280;34927;37.302;-121.982;2023-03-03T04:57:12;101358.0;;;24.15;27.75
48530;BME280;34927;37.302;-121.982;2023-03-03T04:58:17;101358.0;;;23.90;28.02
48530;BME280;34927;37.302;-121.982;2023-03-03T04:59:22;101360.0;;;23.69;28.49
48530;BME280;34927;37.302;-121.982;2023-03-03T05:00:27;101358.0;;;23.58;28.58
48530;BME280;34927;37.302;-121.982;2023-03-03T05:01:31;101356.0;;;23.45;28.65
48530;BME280;34927;37.302;-121.982;2023-03-03T05:02:36;101356.0;;;23.36;28.80
48530;BME280;34927;37.302;-121.982;2023-03-03T05:03:41;101356.0;;;23.28;28.86
48530;BME280;34927;37.302;-121.982;2023-03-03T05:04:47;101355.0;;;23.20;28.93
48530;BME280;34927;37.302;-121.982;2023-03-03T05:05:52;101353.0;;;23.07;29.01
48530;BME280;34927;37.302;-121.982;2023-03-03T05:06:57;101353.0;;;22.98;29.25
48530;BME280;34927;37.302;-121.982;2023-03-03T05:08:02;101353.0;;;23.04;29.01
48530;BME280;34927;37.302;-121.982;2023-03-03T05:09:06;101355.0;;;23.00;29.12
48530;BME280;34927;37.302;-121.982;2023-03-03T05:10:11;101358.0;;;22.95;29.09
48530;BME280;34927;37.302;-121.982;2023-03-03T05:11:17;101361.0;;;23.14;28.98
48530;BME280;34927;37.302;-121.982;2023-03-03T05:12:22;101364.0;;;23.34;28.77
48530;BME280;34927;37.302;-121.982;2023-03-03T05:13:27;101364.0;;;23.60;28.43
48530;BME280;34927;37.302;-121.982;2023-03-03T05:14:32;101367.0;;;23.90;28.06
48530;BME280;34927;37.302;-121.982;2023-03-03T05:15:36;101361.0;;;24.16;27.65
48530;BME280;34927;37.302;-121.982;2023-03-03T05:16:42;101358.0;;;24.39;27.29
48530;BME280;34927;37.302;-121.982;2023-03-03T05:17:47;101357.0;;;24.41;27.19
48530;BME280;34927;37.302;-121.982;2023-03-03T05:18:52;101358.0;;;24.29;27.34
48530;BME280;34927;37.302;-121.982;2023-03-03T05:19:57;101355.0;;;24.10;27.53
48530;BME280;34927;37.302;-121.982;2023-03-03T05:21:01;101351.0;;;23.84;27.79
48530;BME280;34927;37.302;-121.982;2023-03-03T05:22:07;101352.0;;;23.65;27.99
48530;BME280;34927;37.302;-121.982;2023-03-03T05:23:12;101350.0;;;23.59;27.98
48530;BME280;34927;37.302;-121.982;2023-03-03T05:24:17;101351.0;;;23.47;28.06
48530;BME280;34927;37.302;-121.982;2023-03-03T05:25:21;101354.0;;;23.29;28.37
48530;BME280;34927;37.302;-121.982;2023-03-03T05:26:26;101352.0;;;23.17;28.47
48530;BME280;34927;37.302;-121.982;2023-03-03T05:27:31;101354.0;;;22.93;28.79
48530;BME280;34927;37.302;-121.982;2023-03-03T05:28:37;101358.0;;;22.91;28.87
48530;BME280;34927;37.302;-121.982;2023-03-03T05:29:42;101361.0;;;22.77;29.01
48530;BME280;34927;37.302;-121.982;2023-03-03T05:30:46;101365.0;;;22.92;28.87
48530;BME280;34927;37.302;-121.982;2023-03-03T05:31:52;101366.0;;;22.99;28.54
48530;BME280;34927;37.302;-121.982;2023-03-03T05:32:57;101368.0;;;23.10;28.67
48530;BME280;34927;37.302;-121.982;2023-03-03T05:34:02;101370.0;;;23.35;28.50
48530;BME280;34927;37.302;-121.982;2023-03-03T05:35:07;101366.0;;;23.55;28.20
48530;BME280;34927;37.302;-121.982;2023-03-03T05:36:12;101367.0;;;23.86;27.82
48530;BME280;34927;37.302;-121.982;2023-03-03T05:37:16;101362.0;;;24.09;27.47
48530;BME280;34927;37.302;-121.982;2023-03-03T05:38:22;101365.0;;;24.33;27.16
48530;BME280;34927;37.302;-121.982;2023-03-03T05:39:27;101367.0;;;24.47;26.91